sensor_id;sensor_type;location;lat;lon;timestamp;temperature;humidity
26821;DHT22;37186;51.394;5.454;2024-03-23T00:54:47;11.30;82.70
26821;DHT22;37186;51.394;5.454;2024-03-23T00:57:48;11.30;82.80
26821;DHT22;37186;51.394;5.454;2024-03-23T01:00:48;11.30;82.80
26821;DHT22;37186;51.394;5.454;2024-03-23T01:03:49;11.20;82.90
26821;DHT22;37186;51.394;5.454;2024-03-23T01:06:49;11.20;83.00
26821;DHT22;37186;51.394;5.454;2024-03-23T01:09:50;11.30;83.10
26821;DHT22;37186;51.394;5.454;2024-03-23T01:12:52;11.20;82.90
26821;DHT22;37186;51.394;5.454;2024-03-23T01:15:54;11.20;83.60
26821;DHT22;37186;51.394;5.454;2024-03-23T01:18:54;11.20;82.60
26821;DHT22;37186;51.394;5.454;2024-03-23T01:21:55;11.20;82.80
26821;DHT22;37186;51.394;5.454;2024-03-23T01:24:55;11.10;82.80
26821;DHT22;37186;51.394;5.454;2024-03-23T01:27:56;11.10;82.70
26821;DHT22;37186;51.394;5.454;2024-03-23T01:30:56;11.10;82.70
26821;DHT22;37186;51.394;5.454;2024-03-23T01:33:57;11.10;82.60
26821;DHT22;37186;51.394;5.454;2024-03-23T01:36:58;11.10;82.60
26821;DHT22;37186;51.394;5.454;2024-03-23T01:39:59;11.10;82.70
26821;DHT22;37186;51.394;5.454;2024-03-23T01:43:07;11.00;82.70
26821;DHT22;37186;51.394;5.454;2024-03-23T01:46:11;11.00;82.70
26821;DHT22;37186;51.394;5.454;2024-03-23T01:49:11;11.00;82.70
26821;DHT22;37186;51.394;5.454;2024-03-23T01:52:12;11.00;82.80
26821;DHT22;37186;51.394;5.454;2024-03-23T01:55:13;11.00;82.80
26821;DHT22;37186;51.394;5.454;2024-03-23T01:58:13;11.00;82.60
26821;DHT22;37186;51.394;5.454;2024-03-23T02:01:14;10.90;82.50
26821;DHT22;37186;51.394;5.454;2024-03-23T02:04:15;10.90;82.50
26821;DHT22;37186;51.394;5.454;2024-03-23T02:07:15;10.90;82.60
26821;DHT22;37186;51.394;5.454;2024-03-23T02:10:16;10.90;82.70
26821;DHT22;37186;51.394;5.454;2024-03-23T02:13:17;10.90;82.50
26821;DHT22;37186;51.394;5.454;2024-03-23T02:16:18;10.80;82.50
26821;DHT22;37186;51.394;5.454;2024-03-23T02:19:19;10.80;82.70
26821;DHT22;37186;51.394;5.454;2024-03-23T02:22:19;10.80;82.70
26821;DHT22;37186;51.394;5.454;2024-03-23T02:25:20;10.70;82.30
26821;DHT22;37186;51.394;5.454;2024-03-23T02:28:20;10.70;82.40
26821;DHT22;37186;51.394;5.454;2024-03-23T02:31:22;10.60;82.70
26821;DHT22;37186;51.394;5.454;2024-03-23T02:34:23;10.60;83.50
26821;DHT22;37186;51.394;5.454;2024-03-23T02:37:23;10.60;83.30
26821;DHT22;37186;51.394;5.454;2024-03-23T02:40:24;10.60;83.00
26821;DHT22;37186;51.394;5.454;2024-03-23T02:43:25;10.50;82.70
26821;DHT22;37186;51.394;5.454;2024-03-23T02:46:25;10.60;82.70
26821;DHT22;37186;51.394;5.454;2024-03-23T02:49:27;10.50;82.80
26821;DHT22;37186;51.394;5.454;2024-03-23T02:52:27;10.50;82.80
26821;DHT22;37186;51.394;5.454;2024-03-23T02:55:28;10.50;82.90
26821;DHT22;37186;51.394;5.454;2024-03-23T02:58:28;10.50;82.90
26821;DHT22;37186;51.394;5.454;2024-03-23T03:01:29;10.50;82.90
26821;DHT22;37186;51.394;5.454;2024-03-23T03:04:29;10.40;82.80
26821;DHT22;37186;51.394;5.454;2024-03-23T03:07:31;10.40;82.60
26821;DHT22;37186;51.394;5.454;2024-03-23T03:10:31;10.50;82.90
26821;DHT22;37186;51.394;5.454;2024-03-23T03:13:35;10.40;82.70
26821;DHT22;37186;51.394;5.454;2024-03-23T03:16:35;10.50;82.80
26821;DHT22;37186;51.394;5.454;2024-03-23T03:19:36;10.40;82.70
26821;DHT22;37186;51.394;5.454;2024-03-23T03:22:36;10.40;83.00
26821;DHT22;37186;51.394;5.454;2024-03-23T03:25:37;10.40;82.70
26821;DHT22;37186;51.394;5.454;2024-03-23T03:28:37;10.40;82.70
26821;DHT22;37186;51.394;5.454;2024-03-23T03:31:39;10.40;82.60
26821;DHT22;37186;51.394;5.454;2024-03-23T03:34:39;10.40;82.70
26821;DHT22;37186;51.394;5.454;2024-03-23T03:37:40;10.40;82.60
26821;DHT22;37186;51.394;5.454;2024-03-23T03:40:42;10.30;82.60
26821;DHT22;37186;51.394;5.454;2024-03-23T03:43:42;10.30;82.70
26821;DHT22;37186;51.394;5.454;2024-03-23T03:46:43;10.30;83.00
26821;DHT22;37186;51.394;5.454;2024-03-23T03:49:43;10.30;82.70
26821;DHT22;37186;51.394;5.454;2024-03-23T03:52:44;10.30;83.00
26821;DHT22;37186;51.394;5.454;2024-03-23T03:55:44;10.30;82.60
26821;DHT22;37186;51.394;5.454;2024-03-23T03:58:45;10.20;82.70
26821;DHT22;37186;51.394;5.454;2024-03-23T04:01:46;10.20;83.10
26821;DHT22;37186;51.394;5.454;2024-03-23T04:04:46;10.20;82.60
26821;DHT22;37186;51.394;5.454;2024-03-23T04:07:47;10.20;82.70
26821;DHT22;37186;51.394;5.454;2024-03-23T04:10:48;10.10;82.50
26821;DHT22;37186;51.394;5.454;2024-03-23T04:13:48;10.10;82.80
26821;DHT22;37186;51.394;5.454;2024-03-23T04:16:49;10.10;82.60
26821;DHT22;37186;51.394;5.454;2024-03-23T04:19:50;10.10;82.50
26821;DHT22;37186;51.394;5.454;2024-03-23T04:22:52;10.00;82.50
26821;DHT22;37186;51.394;5.454;2024-03-23T04:25:54;10.00;82.50
26821;DHT22;37186;51.394;5.454;2024-03-23T04:28:54;9.90;82.40
26821;DHT22;37186;51.394;5.454;2024-03-23T04:31:55;9.90;82.50
26821;DHT22;37186;51.394;5.454;2024-03-23T04:34:56;9.90;82.20
26821;DHT22;37186;51.394;5.454;2024-03-23T04:37:56;9.80;82.50
26821;DHT22;37186;51.394;5.454;2024-03-23T04:40:59;9.80;82.50
26821;DHT22;37186;51.394;5.454;2024-03-23T04:44:00;9.80;82.60
26821;DHT22;37186;51.394;5.454;2024-03-23T04:47:01;9.80;82.60
26821;DHT22;37186;51.394;5.454;2024-03-23T04:50:02;9.80;82.50
26821;DHT22;37186;51.394;5.454;2024-03-23T04:53:03;9.70;82.40
26821;DHT22;37186;51.394;5.454;2024-03-23T04:56:04;9.70;82.40
26821;DHT22;37186;51.394;5.454;2024-03-23T04:59:05;9.70;82.80
26821;DHT22;37186;51.394;5.454;2024-03-23T05:02:05;9.70;83.00
26821;DHT22;37186;51.394;5.454;2024-03-23T05:05:06;9.60;82.40
26821;DHT22;37186;51.394;5.454;2024-03-23T05:08:07;9.60;82.70
26821;DHT22;37186;51.394;5.454;2024-03-23T05:11:08;9.60;83.10
26821;DHT22;37186;51.394;5.454;2024-03-23T05:14:09;9.60;82.40
26821;DHT22;37186;51.394;5.454;2024-03-23T05:17:09;9.50;82.60
26821;DHT22;37186;51.394;5.454;2024-03-23T05:20:10;9.50;82.60
26821;DHT22;37186;51.394;5.454;2024-03-23T05:23:12;9.50;83.00
26821;DHT22;37186;51.394;5.454;2024-03-23T05:26:14;9.50;82.50
26821;DHT22;37186;51.394;5.454;2024-03-23T05:29:14;9.50;82.50
26821;DHT22;37186;51.394;5.454;2024-03-23T05:32:17;9.40;82.50
26821;DHT22;37186;51.394;5.454;2024-03-23T05:35:18;9.40;82.50
26821;DHT22;37186;51.394;5.454;2024-03-23T05:38:18;9.40;82.70
26821;DHT22;37186;51.394;5.454;2024-03-23T05:41:20;9.40;82.50
26821;DHT22;37186;51.394;5.454;2024-03-23T05:44:20;9.40;82.50
26821;DHT22;37186;51.394;5.454;2024-03-23T05:47:21;9.30;82.30
26821;DHT22;37186;51.394;5.454;2024-03-23T05:50:22;9.30;82.40
26821;DHT22;37186;51.394;5.454;2024-03-23T05:53:24;9.30;82.40
26821;DHT22;37186;51.394;5.454;2024-03-23T05:56:24;9.30;82.50
26821;DHT22;37186;51.394;5.454;2024-03-23T05:59:26;9.30;82.40
26821;DHT22;37186;51.394;5.454;2024-03-23T06:02:27;9.30;82.40
26821;DHT22;37186;51.394;5.454;2024-03-23T06:05:27;9.30;82.50
26821;DHT22;37186;51.394;5.454;2024-03-23T06:08:28;9.30;82.50
26821;DHT22;37186;51.394;5.454;2024-03-23T06:11:28;9.20;82.30
26821;DHT22;37186;51.394;5.454;2024-03-23T06:14:29;9.30;82.50
26821;DHT22;37186;51.394;5.454;2024-03-23T06:17:29;9.20;82.70
26821;DHT22;37186;51.394;5.454;2024-03-23T06:20:30;9.20;82.60
26821;DHT22;37186;51.394;5.454;2024-03-23T06:23:31;9.20;82.50
26821;DHT22;37186;51.394;5.454;2024-03-23T06:26:31;9.20;82.90
26821;DHT22;37186;51.394;5.454;2024-03-23T06:29:32;9.20;82.70
26821;DHT22;37186;51.394;5.454;2024-03-23T06:32:32;9.20;82.80
26821;DHT22;37186;51.394;5.454;2024-03-23T06:35:33;9.20;82.50
26821;DHT22;37186;51.394;5.454;2024-03-23T06:38:34;9.20;82.70
26821;DHT22;37186;51.394;5.454;2024-03-23T06:41:35;9.20;82.70
26821;DHT22;37186;51.394;5.454;2024-03-23T06:44:35;9.10;82.70
26821;DHT22;37186;51.394;5.454;2024-03-23T06:47:36;9.20;83.20
26821;DHT22;37186;51.394;5.454;2024-03-23T06:50:37;9.20;82.70
26821;DHT22;37186;51.394;5.454;2024-03-23T06:53:37;9.20;83.00
26821;DHT22;37186;51.394;5.454;2024-03-23T06:56:38;9.20;83.20
26821;DHT22;37186;51.394;5.454;2024-03-23T06:59:38;9.20;82.80
26821;DHT22;37186;51.394;5.454;2024-03-23T07:02:39;9.30;83.10
26821;DHT22;37186;51.394;5.454;2024-03-23T07:05:39;9.30;83.00
26821;DHT22;37186;51.394;5.454;2024-03-23T07:08:40;9.30;83.00
26821;DHT22;37186;51.394;5.454;2024-03-23T07:11:40;9.30;83.20
26821;DHT22;37186;51.394;5.454;2024-03-23T07:14:41;9.30;83.50
26821;DHT22;37186;51.394;5.454;2024-03-23T07:17:41;9.40;83.20
26821;DHT22;37186;51.394;5.454;2024-03-23T07:20:42;9.40;82.90
26821;DHT22;37186;51.394;5.454;2024-03-23T07:23:43;9.40;83.20
26821;DHT22;37186;51.394;5.454;2024-03-23T07:26:46;9.40;83.00
26821;DHT22;37186;51.394;5.454;2024-03-23T07:29:47;9.40;83.80
26821;DHT22;37186;51.394;5.454;2024-03-23T07:32:48;9.40;83.40
26821;DHT22;37186;51.394;5.454;2024-03-23T07:35:48;9.40;83.60
26821;DHT22;37186;51.394;5.454;2024-03-23T07:38:49;9.40;83.70
26821;DHT22;37186;51.394;5.454;2024-03-23T07:41:49;9.40;83.20
26821;DHT22;37186;51.394;5.454;2024-03-23T07:44:50;9.40;83.30
26821;DHT22;37186;51.394;5.454;2024-03-23T07:47:50;9.40;83.40
26821;DHT22;37186;51.394;5.454;2024-03-23T07:54:08;9.40;83.80
26821;DHT22;37186;51.394;5.454;2024-03-23T07:57:08;9.40;83.70
26821;DHT22;37186;51.394;5.454;2024-03-23T08:00:09;9.40;83.60
26821;DHT22;37186;51.394;5.454;2024-03-23T08:03:10;9.40;83.50
26821;DHT22;37186;51.394;5.454;2024-03-23T08:06:13;9.40;83.40
26821;DHT22;37186;51.394;5.454;2024-03-23T08:09:13;9.40;83.60
26821;DHT22;37186;51.394;5.454;2024-03-23T08:12:14;9.50;83.70
26821;DHT22;37186;51.394;5.454;2024-03-23T08:15:14;9.40;83.50
26821;DHT22;37186;51.394;5.454;2024-03-23T08:18:15;9.50;83.80
26821;DHT22;37186;51.394;5.454;2024-03-23T08:21:18;9.50;83.60
26821;DHT22;37186;51.394;5.454;2024-03-23T08:24:19;9.50;83.70
26821;DHT22;37186;51.394;5.454;2024-03-23T08:27:20;9.50;83.40
26821;DHT22;37186;51.394;5.454;2024-03-23T08:30:20;9.50;83.30
26821;DHT22;37186;51.394;5.454;2024-03-23T08:33:21;9.50;83.40
26821;DHT22;37186;51.394;5.454;2024-03-23T08:36:22;9.50;83.50
26821;DHT22;37186;51.394;5.454;2024-03-23T08:39:23;9.50;83.50
26821;DHT22;37186;51.394;5.454;2024-03-23T08:42:23;9.50;83.70
26821;DHT22;37186;51.394;5.454;2024-03-23T08:45:25;9.60;83.70
26821;DHT22;37186;51.394;5.454;2024-03-23T08:48:26;9.60;83.70
26821;DHT22;37186;51.394;5.454;2024-03-23T08:51:26;9.60;83.70
26821;DHT22;37186;51.394;5.454;2024-03-23T08:54:27;9.70;83.60
26821;DHT22;37186;51.394;5.454;2024-03-23T08:57:29;9.70;83.70
26821;DHT22;37186;51.394;5.454;2024-03-23T09:00:30;9.70;83.50
26821;DHT22;37186;51.394;5.454;2024-03-23T09:03:30;9.70;83.40
26821;DHT22;37186;51.394;5.454;2024-03-23T09:06:31;9.80;83.50
26821;DHT22;37186;51.394;5.454;2024-03-23T09:09:32;9.80;83.50
26821;DHT22;37186;51.394;5.454;2024-03-23T09:12:32;9.90;83.70
26821;DHT22;37186;51.394;5.454;2024-03-23T09:15:35;9.90;83.60
26821;DHT22;37186;51.394;5.454;2024-03-23T09:18:36;9.90;83.60
26821;DHT22;37186;51.394;5.454;2024-03-23T09:21:37;10.00;83.50
26821;DHT22;37186;51.394;5.454;2024-03-23T09:24:38;10.00;83.10
26821;DHT22;37186;51.394;5.454;2024-03-23T09:27:39;10.00;82.80
26821;DHT22;37186;51.394;5.454;2024-03-23T09:30:39;10.10;82.30
26821;DHT22;37186;51.394;5.454;2024-03-23T09:33:43;10.10;80.70
26821;DHT22;37186;51.394;5.454;2024-03-23T09:36:43;10.00;81.70
26821;DHT22;37186;51.394;5.454;2024-03-23T09:39:44;9.90;82.00
26821;DHT22;37186;51.394;5.454;2024-03-23T09:42:50;9.90;82.10
26821;DHT22;37186;51.394;5.454;2024-03-23T09:45:51;9.90;82.20
26821;DHT22;37186;51.394;5.454;2024-03-23T09:48:52;10.00;82.30
26821;DHT22;37186;51.394;5.454;2024-03-23T09:51:53;10.00;82.60
26821;DHT22;37186;51.394;5.454;2024-03-23T09:54:55;10.00;82.60
26821;DHT22;37186;51.394;5.454;2024-03-23T09:57:56;10.00;82.80
26821;DHT22;37186;51.394;5.454;2024-03-23T10:00:56;10.00;82.80
26821;DHT22;37186;51.394;5.454;2024-03-23T10:03:57;10.00;82.60
26821;DHT22;37186;51.394;5.454;2024-03-23T10:07:11;10.10;82.80
26821;DHT22;37186;51.394;5.454;2024-03-23T10:10:12;10.20;82.60
26821;DHT22;37186;51.394;5.454;2024-03-23T10:13:28;10.20;82.80
26821;DHT22;37186;51.394;5.454;2024-03-23T10:16:31;10.20;82.30
26821;DHT22;37186;51.394;5.454;2024-03-23T10:19:32;10.30;81.70
26821;DHT22;37186;51.394;5.454;2024-03-23T10:22:37;10.30;81.50
26821;DHT22;37186;51.394;5.454;2024-03-23T10:25:39;10.30;81.50
26821;DHT22;37186;51.394;5.454;2024-03-23T10:29:01;10.30;80.60
26821;DHT22;37186;51.394;5.454;2024-03-23T10:32:16;10.30;81.10
26821;DHT22;37186;51.394;5.454;2024-03-23T10:35:19;10.30;80.10
26821;DHT22;37186;51.394;5.454;2024-03-23T10:38:20;10.20;80.60
26821;DHT22;37186;51.394;5.454;2024-03-23T10:41:21;10.20;80.80
26821;DHT22;37186;51.394;5.454;2024-03-23T10:44:22;10.30;80.90
26821;DHT22;37186;51.394;5.454;2024-03-23T10:47:26;10.20;81.00
26821;DHT22;37186;51.394;5.454;2024-03-23T10:50:27;10.30;81.30
26821;DHT22;37186;51.394;5.454;2024-03-23T10:53:28;10.30;81.00
26821;DHT22;37186;51.394;5.454;2024-03-23T10:56:30;10.30;80.20
26821;DHT22;37186;51.394;5.454;2024-03-23T10:59:36;10.30;80.80
26821;DHT22;37186;51.394;5.454;2024-03-23T11:02:37;10.30;81.10
26821;DHT22;37186;51.394;5.454;2024-03-23T11:05:37;10.30;80.00
26821;DHT22;37186;51.394;5.454;2024-03-23T11:08:40;10.30;80.60
26821;DHT22;37186;51.394;5.454;2024-03-23T11:11:42;10.40;80.70
26821;DHT22;37186;51.394;5.454;2024-03-23T11:14:42;10.40;80.60
26821;DHT22;37186;51.394;5.454;2024-03-23T11:18:05;10.30;79.20
26821;DHT22;37186;51.394;5.454;2024-03-23T11:21:08;10.30;79.70
26821;DHT22;37186;51.394;5.454;2024-03-23T11:24:15;10.20;78.10
26821;DHT22;37186;51.394;5.454;2024-03-23T11:27:16;10.20;77.90
26821;DHT22;37186;51.394;5.454;2024-03-23T11:30:21;10.10;77.90
26821;DHT22;37186;51.394;5.454;2024-03-23T11:33:24;10.10;78.30
26821;DHT22;37186;51.394;5.454;2024-03-23T11:36:25;10.00;78.50
26821;DHT22;37186;51.394;5.454;2024-03-23T11:39:25;10.10;78.10
26821;DHT22;37186;51.394;5.454;2024-03-23T11:42:26;10.10;78.10
26821;DHT22;37186;51.394;5.454;2024-03-23T11:45:27;10.00;77.20
26821;DHT22;37186;51.394;5.454;2024-03-23T11:48:27;10.00;77.30
26821;DHT22;37186;51.394;5.454;2024-03-23T11:51:29;10.00;78.40
26821;DHT22;37186;51.394;5.454;2024-03-23T11:54:35;9.90;78.60
26821;DHT22;37186;51.394;5.454;2024-03-23T11:57:35;10.00;79.20
26821;DHT22;37186;51.394;5.454;2024-03-23T12:00:36;9.90;78.90
26821;DHT22;37186;51.394;5.454;2024-03-23T12:03:36;9.90;78.80
26821;DHT22;37186;51.394;5.454;2024-03-23T12:06:37;9.90;78.80
26821;DHT22;37186;51.394;5.454;2024-03-23T12:09:37;9.80;78.60
26821;DHT22;37186;51.394;5.454;2024-03-23T12:12:38;9.70;78.70
26821;DHT22;37186;51.394;5.454;2024-03-23T12:15:38;9.70;78.40
26821;DHT22;37186;51.394;5.454;2024-03-23T12:18:43;9.60;78.70
26821;DHT22;37186;51.394;5.454;2024-03-23T12:21:44;9.60;79.30
26821;DHT22;37186;51.394;5.454;2024-03-23T12:24:45;9.50;79.90
26821;DHT22;37186;51.394;5.454;2024-03-23T12:27:45;9.50;80.40
26821;DHT22;37186;51.394;5.454;2024-03-23T12:30:46;9.50;80.80
26821;DHT22;37186;51.394;5.454;2024-03-23T12:33:46;9.50;81.00
26821;DHT22;37186;51.394;5.454;2024-03-23T12:36:47;9.60;81.70
26821;DHT22;37186;51.394;5.454;2024-03-23T12:39:47;9.60;81.60
26821;DHT22;37186;51.394;5.454;2024-03-23T12:42:48;9.70;81.40
26821;DHT22;37186;51.394;5.454;2024-03-23T12:45:49;9.70;81.30
26821;DHT22;37186;51.394;5.454;2024-03-23T12:48:50;9.70;81.00
26821;DHT22;37186;51.394;5.454;2024-03-23T12:51:54;9.80;80.70
26821;DHT22;37186;51.394;5.454;2024-03-23T12:54:59;9.80;81.10
26821;DHT22;37186;51.394;5.454;2024-03-23T12:58:00;9.90;81.00
26821;DHT22;37186;51.394;5.454;2024-03-23T13:01:00;9.90;80.70
26821;DHT22;37186;51.394;5.454;2024-03-23T13:04:01;10.00;80.80
26821;DHT22;37186;51.394;5.454;2024-03-23T13:07:02;10.00;79.80
26821;DHT22;37186;51.394;5.454;2024-03-23T13:10:03;10.00;80.00
26821;DHT22;37186;51.394;5.454;2024-03-23T13:13:05;10.00;80.00
26821;DHT22;37186;51.394;5.454;2024-03-23T13:16:08;10.10;80.00
26821;DHT22;37186;51.394;5.454;2024-03-23T13:19:08;10.10;80.10
26821;DHT22;37186;51.394;5.454;2024-03-23T13:22:09;10.10;79.80
26821;DHT22;37186;51.394;5.454;2024-03-23T13:25:12;10.20;79.30
26821;DHT22;37186;51.394;5.454;2024-03-23T13:28:13;10.20;79.30
26821;DHT22;37186;51.394;5.454;2024-03-23T13:31:13;10.30;79.60
26821;DHT22;37186;51.394;5.454;2024-03-23T13:34:14;10.30;79.20
26821;DHT22;37186;51.394;5.454;2024-03-23T13:37:17;10.40;79.60
26821;DHT22;37186;51.394;5.454;2024-03-23T13:40:18;10.40;78.60
26821;DHT22;37186;51.394;5.454;2024-03-23T13:43:21;10.40;79.40
26821;DHT22;37186;51.394;5.454;2024-03-23T13:46:21;10.40;79.30
26821;DHT22;37186;51.394;5.454;2024-03-23T13:49:28;10.40;79.60
26821;DHT22;37186;51.394;5.454;2024-03-23T13:52:29;10.50;79.90
26821;DHT22;37186;51.394;5.454;2024-03-23T13:55:31;10.50;79.90
26821;DHT22;37186;51.394;5.454;2024-03-23T13:58:32;10.50;79.80
26821;DHT22;37186;51.394;5.454;2024-03-23T14:01:32;10.50;79.50
26821;DHT22;37186;51.394;5.454;2024-03-23T14:04:33;10.50;79.50
26821;DHT22;37186;51.394;5.454;2024-03-23T14:07:34;10.50;79.50
26821;DHT22;37186;51.394;5.454;2024-03-23T14:10:35;10.50;79.10
26821;DHT22;37186;51.394;5.454;2024-03-23T14:13:37;10.50;79.50
26821;DHT22;37186;51.394;5.454;2024-03-23T14:16:38;10.50;79.60
26821;DHT22;37186;51.394;5.454;2024-03-23T14:19:38;10.50;79.60
26821;DHT22;37186;51.394;5.454;2024-03-23T14:22:39;10.60;79.40
26821;DHT22;37186;51.394;5.454;2024-03-23T14:25:41;10.60;79.50
26821;DHT22;37186;51.394;5.454;2024-03-23T14:28:43;10.60;79.80
26821;DHT22;37186;51.394;5.454;2024-03-23T14:31:43;10.60;79.50
26821;DHT22;37186;51.394;5.454;2024-03-23T14:34:44;10.60;79.30
26821;DHT22;37186;51.394;5.454;2024-03-23T14:37:44;10.70;79.60
26821;DHT22;37186;51.394;5.454;2024-03-23T14:40:47;10.70;79.50
26821;DHT22;37186;51.394;5.454;2024-03-23T14:43:47;10.70;79.00
26821;DHT22;37186;51.394;5.454;2024-03-23T14:46:50;10.80;79.30
26821;DHT22;37186;51.394;5.454;2024-03-23T14:49:50;10.80;79.30
26821;DHT22;37186;51.394;5.454;2024-03-23T14:52:51;10.80;79.60
26821;DHT22;37186;51.394;5.454;2024-03-23T14:55:54;10.90;79.50
26821;DHT22;37186;51.394;5.454;2024-03-23T14:58:55;10.90;79.40
26821;DHT22;37186;51.394;5.454;2024-03-23T15:01:56;11.00;79.50
26821;DHT22;37186;51.394;5.454;2024-03-23T15:04:57;11.10;79.00
26821;DHT22;37186;51.394;5.454;2024-03-23T15:07:57;11.10;79.20
26821;DHT22;37186;51.394;5.454;2024-03-23T15:10:59;11.10;79.40
26821;DHT22;37186;51.394;5.454;2024-03-23T15:14:00;11.20;80.00
26821;DHT22;37186;51.394;5.454;2024-03-23T15:17:00;11.20;79.80
26821;DHT22;37186;51.394;5.454;2024-03-23T15:20:05;11.30;80.10
26821;DHT22;37186;51.394;5.454;2024-03-23T15:23:06;11.40;80.70
26821;DHT22;37186;51.394;5.454;2024-03-23T15:26:07;11.60;80.80
26821;DHT22;37186;51.394;5.454;2024-03-23T15:29:07;11.70;80.20
26821;DHT22;37186;51.394;5.454;2024-03-23T15:32:17;11.90;80.80
26821;DHT22;37186;51.394;5.454;2024-03-23T15:35:18;12.00;79.50
26821;DHT22;37186;51.394;5.454;2024-03-23T15:38:21;12.10;79.60
26821;DHT22;37186;51.394;5.454;2024-03-23T15:41:22;12.10;77.90
26821;DHT22;37186;51.394;5.454;2024-03-23T15:44:25;12.00;75.90
26821;DHT22;37186;51.394;5.454;2024-03-23T15:47:26;12.00;74.40
26821;DHT22;37186;51.394;5.454;2024-03-23T15:50:26;11.90;75.40
26821;DHT22;37186;51.394;5.454;2024-03-23T15:53:27;11.70;74.70
26821;DHT22;37186;51.394;5.454;2024-03-23T15:56:31;11.60;74.50
26821;DHT22;37186;51.394;5.454;2024-03-23T15:59:32;11.50;73.90
26821;DHT22;37186;51.394;5.454;2024-03-23T16:02:33;11.40;75.00
26821;DHT22;37186;51.394;5.454;2024-03-23T16:05:33;11.30;75.00
26821;DHT22;37186;51.394;5.454;2024-03-23T16:08:34;11.20;74.10
26821;DHT22;37186;51.394;5.454;2024-03-23T16:11:35;11.00;74.10
26821;DHT22;37186;51.394;5.454;2024-03-23T16:14:35;10.90;74.40
26821;DHT22;37186;51.394;5.454;2024-03-23T16:17:36;10.70;74.50
26821;DHT22;37186;51.394;5.454;2024-03-23T16:20:36;10.60;74.60
26821;DHT22;37186;51.394;5.454;2024-03-23T16:23:37;10.50;74.70
26821;DHT22;37186;51.394;5.454;2024-03-23T16:26:38;10.40;74.90
26821;DHT22;37186;51.394;5.454;2024-03-23T16:29:38;10.30;75.90
26821;DHT22;37186;51.394;5.454;2024-03-23T16:32:39;10.20;75.80
26821;DHT22;37186;51.394;5.454;2024-03-23T16:35:40;10.10;76.10
26821;DHT22;37186;51.394;5.454;2024-03-23T16:38:41;10.00;76.40
26821;DHT22;37186;51.394;5.454;2024-03-23T16:41:42;9.90;76.50
26821;DHT22;37186;51.394;5.454;2024-03-23T16:44:42;9.90;77.10
26821;DHT22;37186;51.394;5.454;2024-03-23T16:47:43;9.80;75.80
26821;DHT22;37186;51.394;5.454;2024-03-23T16:50:45;9.80;76.40
26821;DHT22;37186;51.394;5.454;2024-03-23T16:53:45;9.70;76.50
26821;DHT22;37186;51.394;5.454;2024-03-23T16:56:46;9.70;76.60
26821;DHT22;37186;51.394;5.454;2024-03-23T16:59:47;9.60;77.10
26821;DHT22;37186;51.394;5.454;2024-03-23T17:02:47;9.50;77.40
26821;DHT22;37186;51.394;5.454;2024-03-23T17:05:49;9.40;77.40
26821;DHT22;37186;51.394;5.454;2024-03-23T17:08:50;9.40;77.70
26821;DHT22;37186;51.394;5.454;2024-03-23T17:11:52;9.40;78.00
26821;DHT22;37186;51.394;5.454;2024-03-23T17:14:52;9.40;78.30
26821;DHT22;37186;51.394;5.454;2024-03-23T17:17:53;9.40;78.60
26821;DHT22;37186;51.394;5.454;2024-03-23T17:20:54;9.40;78.80
26821;DHT22;37186;51.394;5.454;2024-03-23T17:23:54;9.40;79.20
26821;DHT22;37186;51.394;5.454;2024-03-23T17:26:57;9.40;79.40
26821;DHT22;37186;51.394;5.454;2024-03-23T17:29:58;9.40;79.20
26821;DHT22;37186;51.394;5.454;2024-03-23T17:32:58;9.40;79.10
26821;DHT22;37186;51.394;5.454;2024-03-23T17:36:02;9.50;79.30
26821;DHT22;37186;51.394;5.454;2024-03-23T17:39:03;9.50;79.30
26821;DHT22;37186;51.394;5.454;2024-03-23T17:42:04;9.50;79.50
26821;DHT22;37186;51.394;5.454;2024-03-23T17:45:05;9.60;79.50
26821;DHT22;37186;51.394;5.454;2024-03-23T17:48:07;9.60;79.40
26821;DHT22;37186;51.394;5.454;2024-03-23T17:51:08;9.60;79.40
26821;DHT22;37186;51.394;5.454;2024-03-23T17:54:08;9.60;79.50
26821;DHT22;37186;51.394;5.454;2024-03-23T17:57:09;9.60;79.50
26821;DHT22;37186;51.394;5.454;2024-03-23T18:00:10;9.60;79.60
26821;DHT22;37186;51.394;5.454;2024-03-23T18:03:12;9.70;79.50
26821;DHT22;37186;51.394;5.454;2024-03-23T18:06:12;9.70;79.80
26821;DHT22;37186;51.394;5.454;2024-03-23T18:09:15;9.70;79.80
26821;DHT22;37186;51.394;5.454;2024-03-23T18:12:17;9.70;79.90
26821;DHT22;37186;51.394;5.454;2024-03-23T18:15:18;9.70;79.80
26821;DHT22;37186;51.394;5.454;2024-03-23T18:18:19;9.70;79.70
26821;DHT22;37186;51.394;5.454;2024-03-23T18:21:19;9.70;79.60
26821;DHT22;37186;51.394;5.454;2024-03-23T18:24:20;9.70;79.60
26821;DHT22;37186;51.394;5.454;2024-03-23T18:27:21;9.70;79.60
26821;DHT22;37186;51.394;5.454;2024-03-23T18:30:21;9.80;79.80
26821;DHT22;37186;51.394;5.454;2024-03-23T18:33:22;9.80;79.80
26821;DHT22;37186;51.394;5.454;2024-03-23T18:36:23;9.80;79.80
26821;DHT22;37186;51.394;5.454;2024-03-23T18:39:24;9.80;80.00
26821;DHT22;37186;51.394;5.454;2024-03-23T18:42:25;9.70;79.80
26821;DHT22;37186;51.394;5.454;2024-03-23T18:45:25;9.70;79.90
26821;DHT22;37186;51.394;5.454;2024-03-23T18:48:26;9.70;80.00
26821;DHT22;37186;51.394;5.454;2024-03-23T18:51:26;9.80;80.10
26821;DHT22;37186;51.394;5.454;2024-03-23T18:54:28;9.70;79.90
26821;DHT22;37186;51.394;5.454;2024-03-23T18:57:29;9.70;79.80
26821;DHT22;37186;51.394;5.454;2024-03-23T19:00:30;9.70;79.90
26821;DHT22;37186;51.394;5.454;2024-03-23T19:03:32;9.80;80.10
26821;DHT22;37186;51.394;5.454;2024-03-23T19:06:32;9.70;79.70
26821;DHT22;37186;51.394;5.454;2024-03-23T19:09:33;9.70;80.20
26821;DHT22;37186;51.394;5.454;2024-03-23T19:12:34;9.60;79.80
26821;DHT22;37186;51.394;5.454;2024-03-23T19:15:35;9.60;80.00
26821;DHT22;37186;51.394;5.454;2024-03-23T19:18:35;9.60;79.90
26821;DHT22;37186;51.394;5.454;2024-03-23T19:21:36;9.60;79.90
26821;DHT22;37186;51.394;5.454;2024-03-23T19:24:36;9.60;79.90
26821;DHT22;37186;51.394;5.454;2024-03-23T19:27:37;9.50;80.10
26821;DHT22;37186;51.394;5.454;2024-03-23T19:30:41;9.50;79.90
26821;DHT22;37186;51.394;5.454;2024-03-23T19:33:43;9.50;80.00
26821;DHT22;37186;51.394;5.454;2024-03-23T19:36:45;9.50;79.70
26821;DHT22;37186;51.394;5.454;2024-03-23T19:39:45;9.40;79.90
26821;DHT22;37186;51.394;5.454;2024-03-23T19:42:46;9.50;79.90
26821;DHT22;37186;51.394;5.454;2024-03-23T19:45:47;9.40;80.10
26821;DHT22;37186;51.394;5.454;2024-03-23T19:48:47;9.40;80.00
26821;DHT22;37186;51.394;5.454;2024-03-23T19:51:48;9.40;79.90
26821;DHT22;37186;51.394;5.454;2024-03-23T19:54:48;9.40;79.90
26821;DHT22;37186;51.394;5.454;2024-03-23T19:57:49;9.30;79.80
26821;DHT22;37186;51.394;5.454;2024-03-23T20:00:49;9.30;79.90
26821;DHT22;37186;51.394;5.454;2024-03-23T20:03:51;9.30;79.90
26821;DHT22;37186;51.394;5.454;2024-03-23T20:06:51;9.30;80.10
26821;DHT22;37186;51.394;5.454;2024-03-23T20:09:52;9.20;79.80